»·PEaware :: DAL359 KLAS-KLAX

DAL359 :: KLAS-KLAX

FLIGHT INFORMATION

Flight Status: Arrived
Operator:
Delta Air Lines
More flights by this operator :: More flights under this callsign
Pilot: Maharsh P. (20537)
Aircraft: BOEING 737-800
(B738)
More flights by this aircraft type
Origin: KLAS McCarran Intl
United States
Destination: KLAX Los Angeles Intl
United States
More flights between these airports :: More routes between these airports
Route: +BOACH8 RIKKI SHTNR ANJLL4
File this flight plan on PilotEdge
Remarks:
Altitude:
(Current/Filed)
340,000ft
Speed:
(Current/Filed)
115kts
Departed: 29-Sep-18 04:12 PM
Arrived: 29-Sep-18 05:01 PM
Distance/Time
Traveled:
205nm/0:48
Distance/Time
To Go:
Arrived

Flight Plot

Page will automatically refresh every two minutes.

Flight plan parsing failed; only flown route is shown


Map Options




Map Legend


Flown Route
Filed Route
Departure Airport
Arrival Airport
Navaid (VOR, NDB)
Fix

Horizontal Profiles

Position Reports

Time Latitude Longitude Heading Altitude Ground
Speed
29-Sep-18 15:49 36.079977 -115.140356 55 2076ft 0kts
29-Sep-18 15:50 36.079977 -115.140356 55 2076ft 0kts
29-Sep-18 15:51 36.079977 -115.140356 55 2076ft 0kts
29-Sep-18 15:52 36.079977 -115.140356 55 2076ft 0kts
29-Sep-18 15:53 36.079977 -115.140356 55 2076ft 0kts
29-Sep-18 15:54 36.079977 -115.140356 55 2076ft 0kts
29-Sep-18 15:55 36.079977 -115.140356 55 2076ft 0kts
29-Sep-18 15:56 36.079977 -115.140356 55 2076ft 0kts
29-Sep-18 15:57 36.079977 -115.140356 55 2076ft 0kts
29-Sep-18 15:58 36.079977 -115.140356 55 2076ft 0kts
29-Sep-18 15:59 36.079977 -115.140356 55 2076ft 0kts
29-Sep-18 16:00 36.079977 -115.140356 55 2076ft 0kts
29-Sep-18 16:01 36.079977 -115.140357 55 2076ft 0kts
29-Sep-18 16:02 36.079950 -115.140440 83 2076ft 2kts
29-Sep-18 16:03 36.079652 -115.141058 82 2079ft 2kts
29-Sep-18 16:04 36.079966 -115.141576 175 2081ft 2kts
29-Sep-18 16:05 36.080073 -115.141569 183 2080ft 0kts
29-Sep-18 16:06 36.080073 -115.141569 183 2080ft 0kts
29-Sep-18 16:07 36.080073 -115.141569 183 2080ft 0kts
29-Sep-18 16:08 36.078696 -115.141605 181 2083ft 9kts
29-Sep-18 16:09 36.078244 -115.139737 89 2077ft 3kts
29-Sep-18 16:10 36.077525 -115.136679 89 2070ft 29kts
29-Sep-18 16:11 36.077541 -115.127618 89 2045ft 26kts
29-Sep-18 16:12 36.077424 -115.121505 131 2037ft 0kts
29-Sep-18 16:13 36.077424 -115.121505 131 2037ft 0kts
29-Sep-18 16:14 36.076425 -115.123497 269 2039ft 47kts
29-Sep-18 16:15 36.082403 -115.171409 268 3213ft 186kts
29-Sep-18 16:16 36.073301 -115.240705 238 4200ft 221kts
29-Sep-18 16:17 36.021651 -115.279126 198 5771ft 225kts
29-Sep-18 16:18 35.961977 -115.304202 188 7276ft 231kts
29-Sep-18 16:19 35.897526 -115.310632 186 8404ft 243kts
29-Sep-18 16:20 35.829281 -115.313107 177 9321ft 251kts
29-Sep-18 16:21 35.757977 -115.304020 177 10170ft 281kts
29-Sep-18 16:22 35.679152 -115.294954 178 13879ft 293kts
29-Sep-18 16:23 35.597147 -115.297685 185 17355ft 304kts
29-Sep-18 16:24 35.525921 -115.300743 188 20017ft 314kts
29-Sep-18 16:25 35.434243 -115.353784 211 23001ft 327kts
29-Sep-18 16:26 35.355808 -115.410764 211 25397ft 331kts
29-Sep-18 16:27 35.276584 -115.468205 212 28021ft 331kts
29-Sep-18 16:28 35.198488 -115.524698 212 30601ft 323kts
29-Sep-18 16:29 35.135111 -115.570496 214 32469ft 316kts
29-Sep-18 16:30 35.063193 -115.656292 226 34042ft 316kts
29-Sep-18 16:31 35.009934 -115.724375 226 34076ft 349kts
29-Sep-18 16:32 34.930249 -115.825931 226 34068ft 392kts
29-Sep-18 16:33 34.865786 -115.907866 226 34086ft 420kts
29-Sep-18 16:34 34.782406 -116.013550 226 34077ft 441kts
29-Sep-18 16:35 34.697624 -116.121466 226 34073ft 441kts
29-Sep-18 16:36 34.613100 -116.228921 226 34064ft 441kts
29-Sep-18 16:37 34.528530 -116.336093 226 34070ft 441kts
29-Sep-18 16:38 34.444360 -116.442430 226 33742ft 432kts
29-Sep-18 16:39 34.381476 -116.563405 242 30234ft 420kts
29-Sep-18 16:40 34.331381 -116.684849 242 27128ft 402kts
29-Sep-18 16:41 34.283613 -116.803420 242 24116ft 386kts
29-Sep-18 16:42 34.238508 -116.915279 242 22022ft 351kts
29-Sep-18 16:43 34.200348 -117.020009 249 19754ft 338kts
29-Sep-18 16:44 34.172372 -117.125823 249 17442ft 329kts
29-Sep-18 16:45 34.144450 -117.228163 249 15233ft 321kts
29-Sep-18 16:46 34.117784 -117.325166 249 13886ft 292kts
29-Sep-18 16:47 34.093822 -117.415363 250 12287ft 286kts
29-Sep-18 16:48 34.071305 -117.505946 253 10382ft 292kts
29-Sep-18 16:49 34.055939 -117.600059 256 8570ft 291kts
29-Sep-18 16:50 34.040566 -117.690998 257 7026ft 282kts
29-Sep-18 16:51 34.026154 -117.775615 259 5149ft 258kts
29-Sep-18 16:52 34.012724 -117.854312 259 3587ft 222kts
29-Sep-18 16:53 34.001133 -117.921964 259 3178ft 210kts
29-Sep-18 16:54 33.989826 -117.987805 258 1880ft 193kts
29-Sep-18 16:55 33.980398 -118.042392 259 1879ft 167kts
29-Sep-18 16:56 33.971428 -118.094292 259 1882ft 165kts
29-Sep-18 16:57 33.962581 -118.145294 259 1871ft 157kts
29-Sep-18 16:58 33.956525 -118.193907 264 1894ft 151kts
29-Sep-18 16:59 33.951639 -118.242117 263 1896ft 149kts
29-Sep-18 17:00 33.947121 -118.288346 263 1651ft 132kts
29-Sep-18 17:01 33.942753 -118.330935 262 973ft 128kts
29-Sep-18 17:02 33.938586 -118.371269 262 306ft 117kts
29-Sep-18 17:03 33.936518 -118.391066 265 105ft 14kts
29-Sep-18 17:04 33.938026 -118.388730 51 103ft 3kts
29-Sep-18 17:05 33.938105 -118.388610 52 103ft 8kts
29-Sep-18 17:06 33.940547 -118.390663 278 104ft 15kts
29-Sep-18 17:07 33.941593 -118.393239 331 106ft 6kts

Navigation Log

Ident Type
Flight plan parsing failed, navigation log unavailable